sensor_id;sensor_type;location;lat;lon;timestamp;P1;durP1;ratioP1;P2;durP2;ratioP2
70268;SDS011;58514;48.398;-4.274;2022-07-23T00:01:19;10.15;;;2.65;;
70268;SDS011;58514;48.398;-4.274;2022-07-23T00:03:45;6.22;;;2.72;;
70268;SDS011;58514;48.398;-4.274;2022-07-23T00:06:11;4.03;;;2.08;;
70268;SDS011;58514;48.398;-4.274;2022-07-23T00:08:36;4.57;;;2.42;;
70268;SDS011;58514;48.398;-4.274;2022-07-23T00:11:02;4.28;;;2.45;;
70268;SDS011;58514;48.398;-4.274;2022-07-23T00:13:28;8.15;;;2.63;;
70268;SDS011;58514;48.398;-4.274;2022-07-23T00:15:54;4.28;;;2.50;;
70268;SDS011;58514;48.398;-4.274;2022-07-23T00:18:20;7.80;;;2.53;;
70268;SDS011;58514;48.398;-4.274;2022-07-23T00:20:46;7.40;;;2.15;;
70268;SDS011;58514;48.398;-4.274;2022-07-23T00:23:12;5.63;;;2.47;;
70268;SDS011;58514;48.398;-4.274;2022-07-23T00:25:38;5.20;;;2.83;;
70268;SDS011;58514;48.398;-4.274;2022-07-23T00:28:04;4.68;;;2.75;;
70268;SDS011;58514;48.398;-4.274;2022-07-23T00:30:30;7.45;;;3.22;;
70268;SDS011;58514;48.398;-4.274;2022-07-23T00:33:00;4.22;;;2.50;;
70268;SDS011;58514;48.398;-4.274;2022-07-23T00:35:29;5.38;;;2.15;;
70268;SDS011;58514;48.398;-4.274;2022-07-23T00:37:57;6.03;;;3.50;;
70268;SDS011;58514;48.398;-4.274;2022-07-23T00:40:24;5.57;;;2.78;;
70268;SDS011;58514;48.398;-4.274;2022-07-23T00:42:51;4.93;;;2.35;;
70268;SDS011;58514;48.398;-4.274;2022-07-23T00:45:17;5.50;;;2.13;;
70268;SDS011;58514;48.398;-4.274;2022-07-23T00:47:43;5.63;;;2.92;;
70268;SDS011;58514;48.398;-4.274;2022-07-23T00:50:08;5.32;;;2.90;;
70268;SDS011;58514;48.398;-4.274;2022-07-23T00:52:35;6.00;;;2.55;;
70268;SDS011;58514;48.398;-4.274;2022-07-23T00:55:02;4.80;;;2.70;;
70268;SDS011;58514;48.398;-4.274;2022-07-23T00:57:29;5.55;;;2.60;;
70268;SDS011;58514;48.398;-4.274;2022-07-23T00:59:55;9.13;;;3.08;;
70268;SDS011;58514;48.398;-4.274;2022-07-23T01:02:22;10.80;;;3.53;;
70268;SDS011;58514;48.398;-4.274;2022-07-23T01:04:49;7.70;;;2.83;;
70268;SDS011;58514;48.398;-4.274;2022-07-23T01:07:15;8.32;;;3.25;;
70268;SDS011;58514;48.398;-4.274;2022-07-23T01:09:42;4.40;;;2.65;;
70268;SDS011;58514;48.398;-4.274;2022-07-23T01:12:09;4.20;;;2.90;;
70268;SDS011;58514;48.398;-4.274;2022-07-23T01:14:34;4.37;;;2.50;;
70268;SDS011;58514;48.398;-4.274;2022-07-23T01:17:00;4.82;;;2.58;;
70268;SDS011;58514;48.398;-4.274;2022-07-23T01:19:26;4.15;;;2.55;;
70268;SDS011;58514;48.398;-4.274;2022-07-23T01:21:53;4.93;;;3.25;;
70268;SDS011;58514;48.398;-4.274;2022-07-23T01:24:20;4.18;;;2.50;;
70268;SDS011;58514;48.398;-4.274;2022-07-23T01:26:46;5.40;;;2.72;;
70268;SDS011;58514;48.398;-4.274;2022-07-23T01:29:13;5.30;;;3.40;;
70268;SDS011;58514;48.398;-4.274;2022-07-23T01:31:40;5.55;;;3.53;;
70268;SDS011;58514;48.398;-4.274;2022-07-23T01:34:06;6.07;;;2.97;;
70268;SDS011;58514;48.398;-4.274;2022-07-23T01:36:32;7.07;;;3.22;;
70268;SDS011;58514;48.398;-4.274;2022-07-23T01:39:02;5.82;;;3.33;;
70268;SDS011;58514;48.398;-4.274;2022-07-23T01:41:29;5.22;;;3.35;;
70268;SDS011;58514;48.398;-4.274;2022-07-23T01:43:54;7.93;;;3.22;;
70268;SDS011;58514;48.398;-4.274;2022-07-23T01:46:20;5.93;;;3.35;;
70268;SDS011;58514;48.398;-4.274;2022-07-23T01:48:46;12.37;;;3.63;;
70268;SDS011;58514;48.398;-4.274;2022-07-23T01:51:12;7.15;;;3.38;;
70268;SDS011;58514;48.398;-4.274;2022-07-23T01:53:37;6.00;;;3.08;;
70268;SDS011;58514;48.398;-4.274;2022-07-23T01:56:03;6.82;;;3.03;;
70268;SDS011;58514;48.398;-4.274;2022-07-23T01:58:29;5.95;;;3.28;;
70268;SDS011;58514;48.398;-4.274;2022-07-23T02:00:55;5.63;;;3.60;;
70268;SDS011;58514;48.398;-4.274;2022-07-23T02:03:21;5.18;;;3.40;;
70268;SDS011;58514;48.398;-4.274;2022-07-23T02:05:47;5.68;;;2.92;;
70268;SDS011;58514;48.398;-4.274;2022-07-23T02:08:13;5.93;;;3.28;;
70268;SDS011;58514;48.398;-4.274;2022-07-23T02:10:39;8.48;;;2.97;;
70268;SDS011;58514;48.398;-4.274;2022-07-23T02:13:05;7.90;;;3.10;;
70268;SDS011;58514;48.398;-4.274;2022-07-23T02:15:31;7.68;;;3.30;;
70268;SDS011;58514;48.398;-4.274;2022-07-23T02:17:56;5.40;;;2.90;;
70268;SDS011;58514;48.398;-4.274;2022-07-23T02:20:22;3.87;;;2.63;;
70268;SDS011;58514;48.398;-4.274;2022-07-23T02:22:48;9.07;;;3.60;;
70268;SDS011;58514;48.398;-4.274;2022-07-23T02:25:14;7.70;;;3.15;;
70268;SDS011;58514;48.398;-4.274;2022-07-23T02:27:40;7.63;;;3.05;;
70268;SDS011;58514;48.398;-4.274;2022-07-23T02:30:06;6.72;;;3.42;;
70268;SDS011;58514;48.398;-4.274;2022-07-23T02:34:58;7.00;;;2.90;;
70268;SDS011;58514;48.398;-4.274;2022-07-23T02:37:23;4.10;;;2.72;;
70268;SDS011;58514;48.398;-4.274;2022-07-23T02:39:49;3.92;;;2.83;;
70268;SDS011;58514;48.398;-4.274;2022-07-23T02:42:15;6.05;;;2.97;;
70268;SDS011;58514;48.398;-4.274;2022-07-23T02:44:41;6.03;;;2.75;;
70268;SDS011;58514;48.398;-4.274;2022-07-23T02:47:07;4.75;;;2.85;;
70268;SDS011;58514;48.398;-4.274;2022-07-23T02:49:33;4.20;;;2.73;;
70268;SDS011;58514;48.398;-4.274;2022-07-23T02:51:59;5.50;;;2.92;;
70268;SDS011;58514;48.398;-4.274;2022-07-23T02:54:24;4.18;;;2.50;;
70268;SDS011;58514;48.398;-4.274;2022-07-23T02:56:50;5.53;;;2.80;;
70268;SDS011;58514;48.398;-4.274;2022-07-23T02:59:16;5.60;;;3.40;;
70268;SDS011;58514;48.398;-4.274;2022-07-23T03:01:42;6.38;;;2.45;;
70268;SDS011;58514;48.398;-4.274;2022-07-23T03:04:09;7.28;;;3.38;;
70268;SDS011;58514;48.398;-4.274;2022-07-23T03:06:34;3.05;;;2.47;;
70268;SDS011;58514;48.398;-4.274;2022-07-23T03:09:00;8.02;;;3.08;;
70268;SDS011;58514;48.398;-4.274;2022-07-23T03:11:26;4.32;;;2.95;;
70268;SDS011;58514;48.398;-4.274;2022-07-23T03:13:52;5.88;;;3.10;;
70268;SDS011;58514;48.398;-4.274;2022-07-23T03:16:17;6.77;;;3.53;;
70268;SDS011;58514;48.398;-4.274;2022-07-23T03:18:43;5.53;;;2.80;;
70268;SDS011;58514;48.398;-4.274;2022-07-23T03:21:09;4.73;;;2.90;;
70268;SDS011;58514;48.398;-4.274;2022-07-23T03:23:34;8.82;;;3.10;;
70268;SDS011;58514;48.398;-4.274;2022-07-23T03:26:00;6.25;;;2.95;;
70268;SDS011;58514;48.398;-4.274;2022-07-23T03:28:26;7.30;;;3.15;;
70268;SDS011;58514;48.398;-4.274;2022-07-23T03:30:52;5.30;;;2.78;;
70268;SDS011;58514;48.398;-4.274;2022-07-23T03:33:18;8.18;;;3.42;;
70268;SDS011;58514;48.398;-4.274;2022-07-23T03:35:46;8.75;;;2.80;;
70268;SDS011;58514;48.398;-4.274;2022-07-23T03:38:12;7.70;;;3.05;;
70268;SDS011;58514;48.398;-4.274;2022-07-23T03:40:38;4.88;;;2.63;;
70268;SDS011;58514;48.398;-4.274;2022-07-23T03:43:04;8.77;;;3.05;;
70268;SDS011;58514;48.398;-4.274;2022-07-23T03:45:30;6.53;;;2.78;;
70268;SDS011;58514;48.398;-4.274;2022-07-23T03:47:56;4.25;;;2.85;;
70268;SDS011;58514;48.398;-4.274;2022-07-23T03:50:21;5.30;;;2.80;;
70268;SDS011;58514;48.398;-4.274;2022-07-23T03:52:47;5.80;;;2.92;;
70268;SDS011;58514;48.398;-4.274;2022-07-23T03:55:13;4.18;;;2.70;;
70268;SDS011;58514;48.398;-4.274;2022-07-23T03:57:39;5.45;;;3.30;;
70268;SDS011;58514;48.398;-4.274;2022-07-23T04:00:06;7.78;;;4.25;;
70268;SDS011;58514;48.398;-4.274;2022-07-23T04:02:34;8.30;;;4.10;;
70268;SDS011;58514;48.398;-4.274;2022-07-23T04:07:26;7.25;;;4.60;;
70268;SDS011;58514;48.398;-4.274;2022-07-23T04:09:52;7.88;;;3.95;;
70268;SDS011;58514;48.398;-4.274;2022-07-23T04:12:18;5.70;;;3.50;;
70268;SDS011;58514;48.398;-4.274;2022-07-23T04:14:44;5.97;;;3.72;;
70268;SDS011;58514;48.398;-4.274;2022-07-23T04:17:10;5.80;;;3.92;;
70268;SDS011;58514;48.398;-4.274;2022-07-23T04:19:36;6.13;;;4.28;;
70268;SDS011;58514;48.398;-4.274;2022-07-23T04:22:07;8.88;;;4.60;;
70268;SDS011;58514;48.398;-4.274;2022-07-23T04:24:34;10.98;;;5.13;;
70268;SDS011;58514;48.398;-4.274;2022-07-23T04:27:00;7.57;;;4.10;;
70268;SDS011;58514;48.398;-4.274;2022-07-23T04:29:26;9.27;;;4.88;;
70268;SDS011;58514;48.398;-4.274;2022-07-23T04:31:52;5.80;;;4.55;;
70268;SDS011;58514;48.398;-4.274;2022-07-23T04:34:18;6.70;;;5.07;;
70268;SDS011;58514;48.398;-4.274;2022-07-23T04:36:44;5.05;;;4.18;;
70268;SDS011;58514;48.398;-4.274;2022-07-23T04:39:09;8.10;;;5.43;;
70268;SDS011;58514;48.398;-4.274;2022-07-23T04:41:35;9.60;;;4.90;;
70268;SDS011;58514;48.398;-4.274;2022-07-23T04:46:27;7.45;;;5.22;;
70268;SDS011;58514;48.398;-4.274;2022-07-23T04:48:53;12.80;;;5.18;;
70268;SDS011;58514;48.398;-4.274;2022-07-23T04:51:19;11.52;;;4.75;;
70268;SDS011;58514;48.398;-4.274;2022-07-23T04:53:44;6.28;;;4.13;;
70268;SDS011;58514;48.398;-4.274;2022-07-23T04:56:10;9.07;;;5.35;;
70268;SDS011;58514;48.398;-4.274;2022-07-23T04:58:36;8.27;;;4.30;;
70268;SDS011;58514;48.398;-4.274;2022-07-23T05:01:02;9.50;;;5.30;;
70268;SDS011;58514;48.398;-4.274;2022-07-23T05:03:28;13.18;;;5.63;;
70268;SDS011;58514;48.398;-4.274;2022-07-23T05:05:54;7.88;;;5.10;;
70268;SDS011;58514;48.398;-4.274;2022-07-23T05:08:19;7.80;;;4.80;;
70268;SDS011;58514;48.398;-4.274;2022-07-23T05:10:45;7.13;;;4.82;;
70268;SDS011;58514;48.398;-4.274;2022-07-23T05:13:11;8.60;;;4.60;;
70268;SDS011;58514;48.398;-4.274;2022-07-23T05:15:37;7.15;;;4.63;;
70268;SDS011;58514;48.398;-4.274;2022-07-23T05:18:02;9.07;;;5.10;;
70268;SDS011;58514;48.398;-4.274;2022-07-23T05:20:28;7.75;;;4.50;;
70268;SDS011;58514;48.398;-4.274;2022-07-23T05:22:54;9.20;;;4.25;;
70268;SDS011;58514;48.398;-4.274;2022-07-23T05:25:19;6.53;;;5.10;;
70268;SDS011;58514;48.398;-4.274;2022-07-23T05:27:45;7.03;;;4.55;;
70268;SDS011;58514;48.398;-4.274;2022-07-23T05:30:11;8.27;;;4.75;;
70268;SDS011;58514;48.398;-4.274;2022-07-23T05:32:37;6.38;;;5.50;;
70268;SDS011;58514;48.398;-4.274;2022-07-23T05:35:06;7.70;;;4.47;;
70268;SDS011;58514;48.398;-4.274;2022-07-23T05:37:32;10.93;;;4.88;;
70268;SDS011;58514;48.398;-4.274;2022-07-23T05:40:05;6.65;;;4.93;;
70268;SDS011;58514;48.398;-4.274;2022-07-23T05:42:39;7.10;;;4.82;;
70268;SDS011;58514;48.398;-4.274;2022-07-23T05:45:06;10.95;;;5.40;;
70268;SDS011;58514;48.398;-4.274;2022-07-23T05:47:41;12.57;;;5.30;;
70268;SDS011;58514;48.398;-4.274;2022-07-23T05:50:09;6.95;;;5.05;;
70268;SDS011;58514;48.398;-4.274;2022-07-23T05:55:01;7.88;;;4.45;;
70268;SDS011;58514;48.398;-4.274;2022-07-23T05:57:27;7.95;;;4.93;;
70268;SDS011;58514;48.398;-4.274;2022-07-23T05:59:52;4.80;;;3.90;;
70268;SDS011;58514;48.398;-4.274;2022-07-23T06:02:18;7.43;;;5.13;;
70268;SDS011;58514;48.398;-4.274;2022-07-23T06:04:44;9.30;;;3.95;;
70268;SDS011;58514;48.398;-4.274;2022-07-23T06:07:10;6.57;;;3.70;;
70268;SDS011;58514;48.398;-4.274;2022-07-23T06:09:36;8.93;;;4.18;;
70268;SDS011;58514;48.398;-4.274;2022-07-23T06:12:02;7.47;;;3.90;;
70268;SDS011;58514;48.398;-4.274;2022-07-23T06:14:28;7.97;;;4.38;;
70268;SDS011;58514;48.398;-4.274;2022-07-23T06:16:53;5.93;;;3.90;;
70268;SDS011;58514;48.398;-4.274;2022-07-23T06:19:19;6.60;;;3.50;;
70268;SDS011;58514;48.398;-4.274;2022-07-23T06:21:45;8.63;;;4.22;;
70268;SDS011;58514;48.398;-4.274;2022-07-23T06:24:10;6.82;;;4.82;;
70268;SDS011;58514;48.398;-4.274;2022-07-23T06:26:36;6.22;;;4.10;;
70268;SDS011;58514;48.398;-4.274;2022-07-23T06:29:02;10.55;;;4.18;;
70268;SDS011;58514;48.398;-4.274;2022-07-23T06:31:27;5.20;;;3.63;;
70268;SDS011;58514;48.398;-4.274;2022-07-23T06:33:53;6.45;;;3.70;;
70268;SDS011;58514;48.398;-4.274;2022-07-23T06:36:19;5.00;;;3.45;;
70268;SDS011;58514;48.398;-4.274;2022-07-23T06:38:45;5.18;;;4.18;;
70268;SDS011;58514;48.398;-4.274;2022-07-23T06:41:11;6.22;;;3.85;;
70268;SDS011;58514;48.398;-4.274;2022-07-23T06:43:37;6.50;;;3.83;;
70268;SDS011;58514;48.398;-4.274;2022-07-23T06:46:02;6.10;;;3.80;;
70268;SDS011;58514;48.398;-4.274;2022-07-23T06:48:28;6.60;;;3.83;;
70268;SDS011;58514;48.398;-4.274;2022-07-23T06:50:54;5.18;;;4.13;;
70268;SDS011;58514;48.398;-4.274;2022-07-23T06:53:20;9.75;;;4.45;;
70268;SDS011;58514;48.398;-4.274;2022-07-23T06:55:46;5.82;;;3.60;;
70268;SDS011;58514;48.398;-4.274;2022-07-23T06:58:12;6.18;;;4.00;;
70268;SDS011;58514;48.398;-4.274;2022-07-23T07:00:39;5.70;;;4.15;;
70268;SDS011;58514;48.398;-4.274;2022-07-23T07:05:30;8.77;;;3.95;;
70268;SDS011;58514;48.398;-4.274;2022-07-23T07:07:56;5.68;;;4.28;;
70268;SDS011;58514;48.398;-4.274;2022-07-23T07:10:22;5.28;;;3.65;;
70268;SDS011;58514;48.398;-4.274;2022-07-23T07:12:48;5.90;;;3.28;;
70268;SDS011;58514;48.398;-4.274;2022-07-23T07:15:14;7.07;;;4.38;;
70268;SDS011;58514;48.398;-4.274;2022-07-23T07:17:39;9.32;;;4.15;;
70268;SDS011;58514;48.398;-4.274;2022-07-23T07:20:07;4.75;;;3.30;;
70268;SDS011;58514;48.398;-4.274;2022-07-23T07:22:33;6.10;;;3.88;;
70268;SDS011;58514;48.398;-4.274;2022-07-23T07:24:59;7.13;;;3.78;;
70268;SDS011;58514;48.398;-4.274;2022-07-23T07:27:24;4.20;;;3.58;;
70268;SDS011;58514;48.398;-4.274;2022-07-23T07:29:50;6.47;;;3.40;;
70268;SDS011;58514;48.398;-4.274;2022-07-23T07:32:16;6.60;;;3.58;;
70268;SDS011;58514;48.398;-4.274;2022-07-23T07:34:42;7.30;;;3.10;;
70268;SDS011;58514;48.398;-4.274;2022-07-23T07:37:07;4.97;;;3.20;;
70268;SDS011;58514;48.398;-4.274;2022-07-23T07:39:33;10.82;;;3.78;;
70268;SDS011;58514;48.398;-4.274;2022-07-23T07:41:59;3.35;;;3.03;;
70268;SDS011;58514;48.398;-4.274;2022-07-23T07:44:25;13.20;;;3.50;;
70268;SDS011;58514;48.398;-4.274;2022-07-23T07:46:50;4.65;;;2.92;;
70268;SDS011;58514;48.398;-4.274;2022-07-23T07:49:16;8.20;;;3.78;;
70268;SDS011;58514;48.398;-4.274;2022-07-23T07:51:44;5.32;;;3.40;;
70268;SDS011;58514;48.398;-4.274;2022-07-23T07:54:10;5.53;;;3.42;;
70268;SDS011;58514;48.398;-4.274;2022-07-23T07:56:36;6.20;;;3.13;;
70268;SDS011;58514;48.398;-4.274;2022-07-23T07:59:02;6.57;;;3.33;;
70268;SDS011;58514;48.398;-4.274;2022-07-23T08:01:28;7.97;;;4.25;;
70268;SDS011;58514;48.398;-4.274;2022-07-23T08:03:53;7.03;;;3.55;;
70268;SDS011;58514;48.398;-4.274;2022-07-23T08:06:19;3.60;;;2.53;;
70268;SDS011;58514;48.398;-4.274;2022-07-23T08:08:45;3.55;;;2.83;;
70268;SDS011;58514;48.398;-4.274;2022-07-23T08:11:10;3.95;;;3.13;;
70268;SDS011;58514;48.398;-4.274;2022-07-23T08:13:36;3.78;;;2.65;;
70268;SDS011;58514;48.398;-4.274;2022-07-23T08:16:02;4.10;;;2.78;;
70268;SDS011;58514;48.398;-4.274;2022-07-23T08:18:27;9.68;;;2.88;;
70268;SDS011;58514;48.398;-4.274;2022-07-23T08:20:54;8.23;;;3.20;;
70268;SDS011;58514;48.398;-4.274;2022-07-23T08:23:20;4.03;;;2.45;;
70268;SDS011;58514;48.398;-4.274;2022-07-23T08:25:46;4.45;;;3.13;;
70268;SDS011;58514;48.398;-4.274;2022-07-23T08:28:12;5.60;;;2.67;;
70268;SDS011;58514;48.398;-4.274;2022-07-23T08:30:40;6.20;;;2.50;;
70268;SDS011;58514;48.398;-4.274;2022-07-23T08:33:08;8.40;;;2.97;;
70268;SDS011;58514;48.398;-4.274;2022-07-23T08:35:42;3.13;;;2.63;;
70268;SDS011;58514;48.398;-4.274;2022-07-23T08:38:13;6.05;;;2.65;;
70268;SDS011;58514;48.398;-4.274;2022-07-23T08:40:42;5.78;;;2.42;;
70268;SDS011;58514;48.398;-4.274;2022-07-23T08:43:19;6.68;;;2.42;;
70268;SDS011;58514;48.398;-4.274;2022-07-23T08:45:48;5.93;;;2.88;;
70268;SDS011;58514;48.398;-4.274;2022-07-23T08:48:19;3.17;;;2.10;;
70268;SDS011;58514;48.398;-4.274;2022-07-23T08:50:50;6.20;;;3.53;;
70268;SDS011;58514;48.398;-4.274;2022-07-23T08:53:23;7.55;;;3.22;;
70268;SDS011;58514;48.398;-4.274;2022-07-23T08:55:51;4.38;;;2.95;;
70268;SDS011;58514;48.398;-4.274;2022-07-23T08:58:21;6.70;;;2.80;;
70268;SDS011;58514;48.398;-4.274;2022-07-23T09:00:49;3.70;;;2.58;;
70268;SDS011;58514;48.398;-4.274;2022-07-23T09:03:19;4.35;;;3.15;;
70268;SDS011;58514;48.398;-4.274;2022-07-23T09:05:47;4.30;;;2.33;;
70268;SDS011;58514;48.398;-4.274;2022-07-23T09:08:17;5.47;;;2.80;;
70268;SDS011;58514;48.398;-4.274;2022-07-23T09:21:07;4.07;;;2.83;;
70268;SDS011;58514;48.398;-4.274;2022-07-23T09:23:38;3.10;;;2.75;;
70268;SDS011;58514;48.398;-4.274;2022-07-23T09:26:16;3.28;;;2.83;;
70268;SDS011;58514;48.398;-4.274;2022-07-23T09:28:54;6.15;;;3.10;;
70268;SDS011;58514;48.398;-4.274;2022-07-23T09:31:32;4.78;;;3.38;;
70268;SDS011;58514;48.398;-4.274;2022-07-23T09:34:10;4.82;;;2.97;;
70268;SDS011;58514;48.398;-4.274;2022-07-23T09:36:38;6.85;;;2.63;;
70268;SDS011;58514;48.398;-4.274;2022-07-23T09:39:04;4.57;;;2.58;;
70268;SDS011;58514;48.398;-4.274;2022-07-23T09:41:38;3.53;;;2.45;;
70268;SDS011;58514;48.398;-4.274;2022-07-23T09:44:06;4.28;;;2.72;;
70268;SDS011;58514;48.398;-4.274;2022-07-23T09:46:43;3.67;;;2.53;;
70268;SDS011;58514;48.398;-4.274;2022-07-23T09:49:21;2.83;;;1.90;;
70268;SDS011;58514;48.398;-4.274;2022-07-23T09:51:52;3.83;;;2.88;;
70268;SDS011;58514;48.398;-4.274;2022-07-23T09:56:52;3.65;;;2.78;;
70268;SDS011;58514;48.398;-4.274;2022-07-23T09:59:18;3.75;;;2.22;;
70268;SDS011;58514;48.398;-4.274;2022-07-23T10:01:51;2.95;;;1.83;;
70268;SDS011;58514;48.398;-4.274;2022-07-23T10:04:19;7.35;;;3.60;;
70268;SDS011;58514;48.398;-4.274;2022-07-23T10:06:47;6.68;;;2.55;;
70268;SDS011;58514;48.398;-4.274;2022-07-23T10:09:16;3.08;;;1.83;;
70268;SDS011;58514;48.398;-4.274;2022-07-23T10:11:48;3.35;;;1.90;;
70268;SDS011;58514;48.398;-4.274;2022-07-23T10:14:15;5.00;;;2.35;;
70268;SDS011;58514;48.398;-4.274;2022-07-23T10:16:41;10.50;;;3.05;;
70268;SDS011;58514;48.398;-4.274;2022-07-23T10:19:07;4.80;;;2.67;;
70268;SDS011;58514;48.398;-4.274;2022-07-23T10:21:37;4.28;;;2.30;;
70268;SDS011;58514;48.398;-4.274;2022-07-23T10:29:55;5.05;;;2.42;;
70268;SDS011;58514;48.398;-4.274;2022-07-23T10:37:37;2.88;;;2.00;;
70268;SDS011;58514;48.398;-4.274;2022-07-23T10:42:38;4.13;;;1.88;;
70268;SDS011;58514;48.398;-4.274;2022-07-23T10:47:54;3.40;;;1.85;;
70268;SDS011;58514;48.398;-4.274;2022-07-23T11:00:29;1.17;;;1.13;;
70268;SDS011;58514;48.398;-4.274;2022-07-23T11:03:00;2.45;;;1.58;;
70268;SDS011;58514;48.398;-4.274;2022-07-23T11:05:41;2.47;;;1.60;;
70268;SDS011;58514;48.398;-4.274;2022-07-23T11:16:10;2.30;;;1.45;;
70268;SDS011;58514;48.398;-4.274;2022-07-23T11:24:08;6.53;;;1.90;;
70268;SDS011;58514;48.398;-4.274;2022-07-23T11:37:05;2.23;;;1.70;;
70268;SDS011;58514;48.398;-4.274;2022-07-23T11:39:33;2.47;;;1.42;;
70268;SDS011;58514;48.398;-4.274;2022-07-23T11:41:59;2.65;;;1.65;;
70268;SDS011;58514;48.398;-4.274;2022-07-23T11:44:30;4.05;;;1.77;;
70268;SDS011;58514;48.398;-4.274;2022-07-23T11:46:58;1.75;;;1.30;;
70268;SDS011;58514;48.398;-4.274;2022-07-23T11:49:32;3.90;;;1.35;;
70268;SDS011;58514;48.398;-4.274;2022-07-23T11:52:08;3.45;;;1.30;;
70268;SDS011;58514;48.398;-4.274;2022-07-23T11:54:58;1.52;;;1.30;;
70268;SDS011;58514;48.398;-4.274;2022-07-23T11:57:24;3.03;;;1.40;;
70268;SDS011;58514;48.398;-4.274;2022-07-23T11:59:56;1.95;;;1.38;;
70268;SDS011;58514;48.398;-4.274;2022-07-23T12:02:26;4.15;;;1.25;;
70268;SDS011;58514;48.398;-4.274;2022-07-23T12:04:52;2.92;;;1.40;;
70268;SDS011;58514;48.398;-4.274;2022-07-23T12:07:38;1.90;;;1.20;;
70268;SDS011;58514;48.398;-4.274;2022-07-23T12:10:10;3.42;;;1.45;;
70268;SDS011;58514;48.398;-4.274;2022-07-23T12:12:42;2.22;;;1.48;;
70268;SDS011;58514;48.398;-4.274;2022-07-23T12:15:14;1.50;;;1.40;;
70268;SDS011;58514;48.398;-4.274;2022-07-23T12:17:42;2.58;;;1.40;;
70268;SDS011;58514;48.398;-4.274;2022-07-23T12:20:09;1.98;;;1.40;;
70268;SDS011;58514;48.398;-4.274;2022-07-23T12:22:40;2.85;;;1.70;;
70268;SDS011;58514;48.398;-4.274;2022-07-23T12:25:11;1.75;;;1.20;;
70268;SDS011;58514;48.398;-4.274;2022-07-23T12:27:38;5.07;;;1.20;;
70268;SDS011;58514;48.398;-4.274;2022-07-23T12:30:17;1.58;;;1.27;;
70268;SDS011;58514;48.398;-4.274;2022-07-23T12:32:49;1.48;;;1.27;;
70268;SDS011;58514;48.398;-4.274;2022-07-23T12:35:16;2.75;;;1.73;;
70268;SDS011;58514;48.398;-4.274;2022-07-23T12:37:43;1.60;;;1.50;;
70268;SDS011;58514;48.398;-4.274;2022-07-23T12:40:30;3.50;;;1.83;;
70268;SDS011;58514;48.398;-4.274;2022-07-23T12:42:57;4.03;;;1.80;;
70268;SDS011;58514;48.398;-4.274;2022-07-23T12:45:23;2.38;;;1.20;;
70268;SDS011;58514;48.398;-4.274;2022-07-23T12:47:54;3.85;;;1.30;;
70268;SDS011;58514;48.398;-4.274;2022-07-23T12:53:18;2.28;;;1.50;;
70268;SDS011;58514;48.398;-4.274;2022-07-23T12:55:46;2.25;;;1.77;;
70268;SDS011;58514;48.398;-4.274;2022-07-23T12:58:15;2.92;;;1.88;;
70268;SDS011;58514;48.398;-4.274;2022-07-23T13:00:53;5.63;;;1.80;;
70268;SDS011;58514;48.398;-4.274;2022-07-23T13:05:52;3.38;;;1.52;;
70268;SDS011;58514;48.398;-4.274;2022-07-23T13:08:18;2.15;;;1.73;;
70268;SDS011;58514;48.398;-4.274;2022-07-23T13:10:45;4.10;;;1.85;;
70268;SDS011;58514;48.398;-4.274;2022-07-23T13:13:16;3.97;;;1.60;;
70268;SDS011;58514;48.398;-4.274;2022-07-23T13:15:46;3.83;;;1.83;;
70268;SDS011;58514;48.398;-4.274;2022-07-23T13:18:11;4.47;;;2.00;;
70268;SDS011;58514;48.398;-4.274;2022-07-23T13:20:37;2.30;;;1.60;;
70268;SDS011;58514;48.398;-4.274;2022-07-23T13:23:04;3.53;;;1.48;;
70268;SDS011;58514;48.398;-4.274;2022-07-23T13:25:31;2.17;;;1.80;;
70268;SDS011;58514;48.398;-4.274;2022-07-23T13:27:57;3.40;;;1.73;;
70268;SDS011;58514;48.398;-4.274;2022-07-23T13:30:22;4.10;;;1.48;;
70268;SDS011;58514;48.398;-4.274;2022-07-23T13:32:48;4.95;;;1.60;;
70268;SDS011;58514;48.398;-4.274;2022-07-23T13:35:14;3.03;;;1.60;;
70268;SDS011;58514;48.398;-4.274;2022-07-23T13:37:40;1.95;;;1.30;;
70268;SDS011;58514;48.398;-4.274;2022-07-23T13:40:06;1.75;;;1.40;;
70268;SDS011;58514;48.398;-4.274;2022-07-23T13:42:32;2.50;;;1.75;;
70268;SDS011;58514;48.398;-4.274;2022-07-23T13:44:58;4.93;;;1.52;;
70268;SDS011;58514;48.398;-4.274;2022-07-23T13:47:23;2.15;;;1.27;;
70268;SDS011;58514;48.398;-4.274;2022-07-23T13:49:49;3.45;;;1.60;;
70268;SDS011;58514;48.398;-4.274;2022-07-23T13:52:15;3.08;;;1.70;;
70268;SDS011;58514;48.398;-4.274;2022-07-23T13:54:41;2.10;;;1.40;;
70268;SDS011;58514;48.398;-4.274;2022-07-23T13:57:06;2.97;;;1.50;;
70268;SDS011;58514;48.398;-4.274;2022-07-23T13:59:34;3.03;;;1.48;;
70268;SDS011;58514;48.398;-4.274;2022-07-23T14:02:01;5.70;;;1.77;;
70268;SDS011;58514;48.398;-4.274;2022-07-23T14:04:27;3.35;;;1.63;;
70268;SDS011;58514;48.398;-4.274;2022-07-23T14:06:53;2.30;;;1.23;;
70268;SDS011;58514;48.398;-4.274;2022-07-23T14:09:19;1.98;;;1.38;;
70268;SDS011;58514;48.398;-4.274;2022-07-23T14:11:44;4.35;;;1.38;;
70268;SDS011;58514;48.398;-4.274;2022-07-23T14:14:10;2.25;;;1.38;;
70268;SDS011;58514;48.398;-4.274;2022-07-23T14:16:36;3.22;;;1.85;;
70268;SDS011;58514;48.398;-4.274;2022-07-23T14:19:02;2.30;;;1.30;;
70268;SDS011;58514;48.398;-4.274;2022-07-23T14:21:27;2.47;;;1.63;;
70268;SDS011;58514;48.398;-4.274;2022-07-23T14:23:53;4.82;;;1.38;;
70268;SDS011;58514;48.398;-4.274;2022-07-23T14:26:19;2.58;;;1.60;;
70268;SDS011;58514;48.398;-4.274;2022-07-23T14:28:45;2.90;;;1.30;;
70268;SDS011;58514;48.398;-4.274;2022-07-23T14:33:36;3.15;;;1.38;;
70268;SDS011;58514;48.398;-4.274;2022-07-23T14:38:27;2.40;;;1.30;;
70268;SDS011;58514;48.398;-4.274;2022-07-23T14:40:55;3.60;;;1.50;;
70268;SDS011;58514;48.398;-4.274;2022-07-23T14:43:21;2.45;;;1.58;;
70268;SDS011;58514;48.398;-4.274;2022-07-23T14:48:13;1.98;;;1.55;;
70268;SDS011;58514;48.398;-4.274;2022-07-23T14:53:05;3.22;;;1.20;;
70268;SDS011;58514;48.398;-4.274;2022-07-23T14:55:31;2.45;;;1.23;;
70268;SDS011;58514;48.398;-4.274;2022-07-23T14:57:57;3.47;;;1.40;;
70268;SDS011;58514;48.398;-4.274;2022-07-23T15:00:23;13.68;;;1.77;;
70268;SDS011;58514;48.398;-4.274;2022-07-23T15:05:15;2.53;;;1.38;;
70268;SDS011;58514;48.398;-4.274;2022-07-23T15:07:41;3.10;;;1.25;;
70268;SDS011;58514;48.398;-4.274;2022-07-23T15:10:07;2.75;;;1.40;;
70268;SDS011;58514;48.398;-4.274;2022-07-23T15:14:58;2.35;;;1.55;;
70268;SDS011;58514;48.398;-4.274;2022-07-23T15:17:24;4.72;;;1.75;;
70268;SDS011;58514;48.398;-4.274;2022-07-23T15:19:50;3.08;;;1.38;;
70268;SDS011;58514;48.398;-4.274;2022-07-23T15:24:42;2.90;;;1.67;;
70268;SDS011;58514;48.398;-4.274;2022-07-23T15:27:08;6.20;;;1.73;;
70268;SDS011;58514;48.398;-4.274;2022-07-23T15:29:34;2.67;;;1.67;;
70268;SDS011;58514;48.398;-4.274;2022-07-23T15:32:00;2.25;;;1.38;;
70268;SDS011;58514;48.398;-4.274;2022-07-23T15:34:26;2.25;;;1.40;;
70268;SDS011;58514;48.398;-4.274;2022-07-23T15:39:17;1.95;;;1.30;;
70268;SDS011;58514;48.398;-4.274;2022-07-23T15:41:44;2.95;;;1.40;;
70268;SDS011;58514;48.398;-4.274;2022-07-23T15:44:09;2.22;;;1.42;;
70268;SDS011;58514;48.398;-4.274;2022-07-23T15:46:35;4.65;;;1.65;;
70268;SDS011;58514;48.398;-4.274;2022-07-23T15:51:27;2.63;;;1.30;;
70268;SDS011;58514;48.398;-4.274;2022-07-23T15:53:53;3.67;;;1.60;;
70268;SDS011;58514;48.398;-4.274;2022-07-23T15:56:19;2.45;;;1.58;;
70268;SDS011;58514;48.398;-4.274;2022-07-23T15:58:45;3.30;;;1.83;;
70268;SDS011;58514;48.398;-4.274;2022-07-23T16:01:11;1.80;;;1.40;;
70268;SDS011;58514;48.398;-4.274;2022-07-23T16:06:03;2.00;;;1.20;;
70268;SDS011;58514;48.398;-4.274;2022-07-23T16:08:31;2.13;;;1.20;;
70268;SDS011;58514;48.398;-4.274;2022-07-23T16:10:57;5.57;;;2.47;;
70268;SDS011;58514;48.398;-4.274;2022-07-23T16:13:24;4.03;;;2.30;;
70268;SDS011;58514;48.398;-4.274;2022-07-23T16:15:51;3.55;;;1.20;;
70268;SDS011;58514;48.398;-4.274;2022-07-23T16:18:19;3.17;;;1.77;;